createdAt,value
2019-04-01T00:00:15.067Z,99411.73
2019-04-01T00:02:41.232Z,99418.36
2019-04-01T00:05:07.425Z,99412.88
2019-04-01T00:07:33.580Z,99407.27
2019-04-01T00:09:59.745Z,99405.20
2019-04-01T00:12:25.989Z,99401.58
2019-04-01T00:14:52.286Z,99401.22
2019-04-01T00:17:18.448Z,99399.95
2019-04-01T00:19:44.651Z,99398.95
2019-04-01T00:22:10.712Z,99393.66
2019-04-01T00:24:36.873Z,99396.12
2019-04-01T00:27:03.176Z,99390.61
2019-04-01T00:29:29.339Z,99387.62
2019-04-01T00:31:55.502Z,99385.52
2019-04-01T00:34:21.700Z,99383.02
2019-04-01T00:36:47.858Z,99389.75
2019-04-01T00:39:14.380Z,99393.27
2019-04-01T00:41:51.163Z,99400.77
2019-04-01T00:44:17.320Z,99387.92
2019-04-01T00:46:43.487Z,99392.39
2019-04-01T00:49:09.667Z,99384.41
2019-04-01T00:51:35.827Z,99390.27
2019-04-01T00:54:01.994Z,99382.70
2019-04-01T00:56:28.180Z,99384.51
2019-04-01T00:58:54.347Z,99389.59
2019-04-01T01:01:20.502Z,99388.30
2019-04-01T01:03:46.908Z,99382.80
2019-04-01T01:06:13.072Z,99387.23
2019-04-01T01:08:39.230Z,99386.78
2019-04-01T01:11:05.424Z,99384.18
2019-04-01T01:13:31.581Z,99386.20
2019-04-01T01:15:57.743Z,99385.94
2019-04-01T01:18:23.934Z,99387.45
2019-04-01T01:20:50.100Z,99389.61
2019-04-01T01:23:16.261Z,99389.25
2019-04-01T01:25:42.545Z,99388.51
2019-04-01T01:28:08.708Z,99396.15
2019-04-01T01:30:34.987Z,99393.91
2019-04-01T01:33:01.182Z,99395.80
2019-04-01T01:35:27.340Z,99407.17
2019-04-01T01:37:53.496Z,99404.54
2019-04-01T01:40:19.700Z,99397.83
2019-04-01T01:42:45.862Z,99407.19
2019-04-01T01:45:12.021Z,99411.58
2019-04-01T01:47:38.203Z,99418.08
2019-04-01T01:50:05.876Z,99419.75
2019-04-01T01:52:32.042Z,99418.30
2019-04-01T01:54:58.232Z,99419.53
2019-04-01T01:57:24.397Z,99418.98
2019-04-01T01:59:50.554Z,99420.50
2019-04-01T02:02:16.745Z,99421.09
2019-04-01T02:04:42.962Z,99423.88
2019-04-01T02:07:09.119Z,99426.60
2019-04-01T02:09:35.463Z,99429.22
2019-04-01T02:12:01.654Z,99425.17
2019-04-01T02:14:27.819Z,99428.31
2019-04-01T02:16:54.010Z,99426.76
2019-04-01T02:19:20.275Z,99424.98
2019-04-01T02:21:46.526Z,99437.50
2019-04-01T02:24:12.715Z,99435.94
2019-04-01T02:26:38.869Z,99434.81
2019-04-01T02:29:05.131Z,99438.83
2019-04-01T02:31:31.333Z,99440.67
2019-04-01T02:33:57.493Z,99436.84
2019-04-01T02:36:23.641Z,99441.95
2019-04-01T02:38:49.826Z,99436.12
2019-04-01T02:41:15.979Z,99435.20
2019-04-01T02:43:42.149Z,99435.37
2019-04-01T02:46:08.541Z,99442.55
2019-04-01T02:48:34.694Z,99437.53
2019-04-01T02:51:00.853Z,99441.52
2019-04-01T02:53:27.055Z,99440.97
2019-04-01T02:55:53.210Z,99438.55
2019-04-01T02:58:19.427Z,99443.05
2019-04-01T03:00:45.654Z,99453.14
2019-04-01T03:03:11.803Z,99453.09
2019-04-01T03:05:37.961Z,99452.58
2019-04-01T03:08:04.157Z,99451.19
2019-04-01T03:10:30.321Z,99450.34
2019-04-01T03:12:56.612Z,99453.99
2019-04-01T03:15:22.898Z,99453.66
2019-04-01T03:17:49.087Z,99453.70
2019-04-01T03:20:15.312Z,99454.45
2019-04-01T03:22:41.510Z,99455.86
2019-04-01T03:25:07.770Z,99457.67
2019-04-01T03:27:33.925Z,99451.42
2019-04-01T03:30:00.582Z,99454.63
2019-04-01T03:32:27.007Z,99455.94
2019-04-01T03:34:53.177Z,99465.38
2019-04-01T03:37:19.368Z,99471.42
2019-04-01T03:39:45.996Z,99483.33
2019-04-01T03:42:12.267Z,99489.54
2019-04-01T03:44:38.445Z,99481.91
2019-04-01T03:47:04.608Z,99492.53
2019-04-01T03:49:30.853Z,99491.53
2019-04-01T03:51:57.036Z,99497.70
2019-04-01T03:54:23.216Z,99497.27
2019-04-01T03:56:49.367Z,99501.05
2019-04-01T03:59:15.552Z,99500.83
2019-04-01T04:01:42.018Z,99501.84
2019-04-01T04:04:08.202Z,99503.96
2019-04-01T04:06:34.485Z,99506.77
2019-04-01T04:09:02.162Z,99509.44
2019-04-01T04:11:28.800Z,99510.73
2019-04-01T04:13:54.974Z,99508.72
2019-04-01T04:16:21.129Z,99514.30
2019-04-01T04:18:47.287Z,99504.08
2019-04-01T04:21:13.479Z,99507.23
2019-04-01T04:23:39.733Z,99510.77
2019-04-01T04:26:05.990Z,99518.41
2019-04-01T04:28:32.175Z,99515.61
2019-04-01T04:30:58.559Z,99507.53
2019-04-01T04:33:24.716Z,99498.25
2019-04-01T04:35:50.899Z,99493.78
2019-04-01T04:38:17.158Z,99493.80
2019-04-01T04:40:43.325Z,99494.25
2019-04-01T04:43:09.609Z,99492.59
2019-04-01T04:45:35.764Z,99491.95
2019-04-01T04:48:01.926Z,99492.33
2019-04-01T04:50:28.216Z,99492.09
2019-04-01T04:52:54.378Z,99494.88
2019-04-01T04:55:20.534Z,99503.59
2019-04-01T04:57:46.826Z,99503.88
2019-04-01T05:00:13.081Z,99499.68
2019-04-01T05:02:39.244Z,99491.80
2019-04-01T05:05:06.330Z,99491.46
2019-04-01T05:07:32.627Z,99494.78
2019-04-01T05:09:58.783Z,99495.50
2019-04-01T05:12:25.779Z,99510.62
2019-04-01T05:14:51.925Z,99504.67
2019-04-01T05:17:18.082Z,99501.05
2019-04-01T05:19:44.380Z,99500.27
2019-04-01T05:22:11.232Z,99501.64
2019-04-01T05:24:37.594Z,99503.56
2019-04-01T05:27:03.786Z,99496.20
2019-04-01T05:29:29.943Z,99503.46
2019-04-01T05:31:58.209Z,99488.98
2019-04-01T05:34:27.798Z,99488.66
2019-04-01T05:36:53.945Z,99480.83
2019-04-01T05:39:20.509Z,99484.34
2019-04-01T05:41:46.697Z,99487.53
2019-04-01T05:44:12.952Z,99488.86
2019-04-01T05:46:39.215Z,99491.02
2019-04-01T05:49:05.501Z,99503.80
2019-04-01T05:51:31.671Z,99501.62
2019-04-01T05:53:57.825Z,99516.85
2019-04-01T05:56:24.216Z,99526.20
2019-04-01T05:58:50.367Z,99530.14
2019-04-01T06:01:18.432Z,99530.03
2019-04-01T06:03:44.634Z,99521.05
2019-04-01T06:06:10.791Z,99523.94
2019-04-01T06:08:37.563Z,99524.55
2019-04-01T06:11:03.766Z,99521.84
2019-04-01T06:13:29.926Z,99517.81
2019-04-01T06:15:56.180Z,99522.55
2019-04-01T06:18:22.390Z,99516.34
2019-04-01T06:20:49.148Z,99533.12
2019-04-01T06:23:15.302Z,99536.19
2019-04-01T06:25:41.518Z,99537.02
2019-04-01T06:28:07.689Z,99535.59
2019-04-01T06:30:33.930Z,99545.44
2019-04-01T06:33:01.023Z,99536.62
2019-04-01T06:35:27.180Z,99533.95
2019-04-01T06:37:53.431Z,99540.84
2019-04-01T06:40:19.850Z,99538.19
2019-04-01T06:42:46.106Z,99536.30
2019-04-01T06:45:12.468Z,99534.38
2019-04-01T06:47:38.653Z,99541.24
2019-04-01T06:50:04.815Z,99545.00
2019-04-01T06:52:31.275Z,99542.69
2019-04-01T06:54:57.458Z,99541.34
2019-04-01T06:57:23.612Z,99545.77
2019-04-01T06:59:49.767Z,99537.33
2019-04-01T07:02:15.957Z,99537.05
2019-04-01T07:04:42.124Z,99536.98
2019-04-01T07:07:18.821Z,99541.88
2019-04-01T07:09:37.612Z,99533.81
2019-04-01T07:12:03.814Z,99546.99
2019-04-01T07:14:30.099Z,99536.67
2019-04-01T07:16:56.304Z,99542.58
2019-04-01T07:19:22.468Z,99533.77
2019-04-01T07:21:48.676Z,99546.02
2019-04-01T07:24:14.877Z,99537.81
2019-04-01T07:26:41.179Z,99532.02
2019-04-01T07:29:07.369Z,99541.95
2019-04-01T07:31:33.677Z,99541.53
2019-04-01T07:34:00.245Z,99534.11
2019-04-01T07:36:26.415Z,99542.72
2019-04-01T07:38:52.658Z,99544.33
2019-04-01T07:41:18.840Z,99543.20
2019-04-01T07:43:45.024Z,99542.49
2019-04-01T07:46:11.454Z,99547.70
2019-04-01T07:48:37.944Z,99548.94
2019-04-01T07:51:07.084Z,99543.04
2019-04-01T07:53:32.168Z,99538.13
2019-04-01T07:55:58.358Z,99536.80
2019-04-01T07:58:24.731Z,99537.80
2019-04-01T08:00:52.782Z,99539.27
2019-04-01T08:03:19.072Z,99533.34
2019-04-01T08:05:45.211Z,99524.70
2019-04-01T08:08:11.404Z,99517.27
2019-04-01T08:10:37.612Z,99520.80
2019-04-01T08:13:03.891Z,99519.59
2019-04-01T08:15:30.098Z,99533.61
2019-04-01T08:17:56.381Z,99522.05
2019-04-01T08:20:22.577Z,99523.52
2019-04-01T08:22:48.860Z,99522.04
2019-04-01T08:25:15.023Z,99523.13
2019-04-01T08:27:41.176Z,99533.86
2019-04-01T08:30:08.100Z,99531.45
2019-04-01T08:32:34.854Z,99528.26
2019-04-01T08:35:01.836Z,99524.77
2019-04-01T08:37:28.460Z,99517.08
2019-04-01T08:39:54.628Z,99518.67
2019-04-01T08:42:21.199Z,99515.59
2019-04-01T08:44:47.504Z,99506.30
2019-04-01T08:47:13.677Z,99508.55
2019-04-01T08:49:39.843Z,99509.48
2019-04-01T08:52:06.071Z,99519.76
2019-04-01T08:54:32.430Z,99523.48
2019-04-01T08:56:58.758Z,99512.08
2019-04-01T08:59:24.980Z,99519.88
2019-04-01T09:01:51.159Z,99514.88
2019-04-01T09:04:17.345Z,99508.98
2019-04-01T09:06:43.561Z,99499.55
2019-04-01T09:09:09.728Z,99515.11
2019-04-01T09:11:38.414Z,99504.20
2019-04-01T09:14:04.016Z,99504.97
2019-04-01T09:16:30.410Z,99494.86
2019-04-01T09:18:56.579Z,99490.83
2019-04-01T09:21:22.787Z,99487.14
2019-04-01T09:23:51.973Z,99490.00
2019-04-01T09:26:17.135Z,99484.54
2019-04-01T09:28:43.359Z,99484.13
2019-04-01T09:31:09.544Z,99483.25
2019-04-01T09:33:35.747Z,99478.58
2019-04-01T09:36:01.977Z,99470.82
2019-04-01T09:38:28.151Z,99473.89
2019-04-01T09:40:54.669Z,99474.31
2019-04-01T09:43:20.982Z,99470.88
2019-04-01T09:45:47.159Z,99466.18
2019-04-01T09:48:13.479Z,99469.73
2019-04-01T09:50:39.766Z,99465.44
2019-04-01T09:53:05.927Z,99463.80
2019-04-01T09:55:32.116Z,99462.34
2019-04-01T09:57:58.410Z,99458.45
2019-04-01T10:00:26.397Z,99460.52
2019-04-01T10:02:52.552Z,99464.61
2019-04-01T10:05:18.780Z,99461.67
2019-04-01T10:07:45.167Z,99453.48
2019-04-01T10:10:11.498Z,99455.84
2019-04-01T10:12:39.710Z,99452.89
2019-04-01T10:15:06.722Z,99443.70
2019-04-01T10:17:35.637Z,99441.12
2019-04-01T10:20:01.855Z,99446.65
2019-04-01T10:22:28.052Z,99439.65
2019-04-01T10:24:54.234Z,99440.30
2019-04-01T10:27:20.452Z,99445.80
2019-04-01T10:29:46.600Z,99443.56
2019-04-01T10:32:12.772Z,99438.42
2019-04-01T10:34:38.976Z,99435.56
2019-04-01T10:37:05.164Z,99432.68
2019-04-01T10:39:31.325Z,99428.47
2019-04-01T10:41:57.557Z,99430.92
2019-04-01T10:44:23.758Z,99426.84
2019-04-01T10:46:50.085Z,99426.23
2019-04-01T10:49:16.349Z,99420.24
2019-04-01T10:51:42.544Z,99424.40
2019-04-01T10:54:08.690Z,99426.12
2019-04-01T10:56:36.048Z,99417.85
2019-04-01T10:59:02.582Z,99423.01
2019-04-01T11:01:28.837Z,99417.47
2019-04-01T11:03:55.138Z,99428.48
2019-04-01T11:06:21.362Z,99421.26
2019-04-01T11:08:47.737Z,99401.33
2019-04-01T11:11:13.944Z,99391.48
2019-04-01T11:13:41.128Z,99396.76
2019-04-01T11:16:07.408Z,99398.28
2019-04-01T11:18:33.613Z,99391.61
2019-04-01T11:20:59.792Z,99382.35
2019-04-01T11:23:25.964Z,99392.56
2019-04-01T11:25:52.184Z,99400.20
2019-04-01T11:28:18.341Z,99401.08
2019-04-01T11:30:44.682Z,99396.23
2019-04-01T11:33:10.977Z,99392.59
2019-04-01T11:35:37.152Z,99381.85
2019-04-01T11:38:03.448Z,99387.48
2019-04-01T11:40:29.761Z,99378.11
2019-04-01T11:42:55.961Z,99383.45
2019-04-01T11:45:22.678Z,99373.33
2019-04-01T11:47:49.433Z,99380.64
2019-04-01T11:50:16.021Z,99369.34
2019-04-01T11:52:42.294Z,99372.58
2019-04-01T11:55:09.136Z,99368.22
2019-04-01T11:57:36.040Z,99365.14
2019-04-01T12:00:10.115Z,99366.84
2019-04-01T12:02:34.511Z,99374.71
2019-04-01T12:05:00.773Z,99378.14
2019-04-01T12:07:26.931Z,99363.55
2019-04-01T12:09:53.179Z,99366.95
2019-04-01T12:12:23.841Z,99363.47
2019-04-01T12:14:47.847Z,99354.74
2019-04-01T12:17:14.251Z,99349.31
2019-04-01T12:19:40.514Z,99344.14
2019-04-01T12:22:06.723Z,99342.00
2019-04-01T12:24:33.223Z,99347.99
2019-04-01T12:26:59.379Z,99352.75
2019-04-01T12:29:25.535Z,99346.03
2019-04-01T12:31:51.800Z,99343.81
2019-04-01T12:34:18.746Z,99338.66
2019-04-01T12:36:45.032Z,99331.53
2019-04-01T12:39:11.371Z,99321.06
2019-04-01T12:41:37.507Z,99328.11
2019-04-01T12:44:03.790Z,99326.57
2019-04-01T12:46:29.989Z,99316.86
2019-04-01T12:48:56.258Z,99316.48
2019-04-01T12:51:22.428Z,99312.09
2019-04-01T12:53:48.621Z,99307.26
2019-04-01T12:56:14.928Z,99304.17
2019-04-01T12:58:41.115Z,99307.13
2019-04-01T13:01:07.353Z,99302.95
2019-04-01T13:03:33.519Z,99311.84
2019-04-01T13:05:59.688Z,99304.83
2019-04-01T13:08:25.894Z,99304.57
2019-04-01T13:10:52.196Z,99304.17
2019-04-01T13:13:18.362Z,99297.02
2019-04-01T13:15:44.602Z,99301.11
2019-04-01T13:18:10.781Z,99292.67
2019-04-01T13:20:38.408Z,99304.89
2019-04-01T13:23:04.928Z,99299.79
2019-04-01T13:25:31.207Z,99302.27
2019-04-01T13:27:57.567Z,99302.71
2019-04-01T13:30:24.306Z,99295.59
2019-04-01T13:32:51.164Z,99293.09
2019-04-01T13:35:17.338Z,99290.31
2019-04-01T13:37:43.549Z,99290.64
2019-04-01T13:40:10.111Z,99293.42
2019-04-01T13:42:36.372Z,99297.11
2019-04-01T13:45:04.004Z,99298.48
2019-04-01T13:47:30.160Z,99300.54
2019-04-01T13:49:56.360Z,99294.73
2019-04-01T13:52:22.584Z,99293.45
2019-04-01T13:54:48.779Z,99293.93
2019-04-01T13:57:14.965Z,99299.87
2019-04-01T13:59:48.967Z,99296.83
2019-04-01T14:02:09.360Z,99303.45
2019-04-01T14:04:35.537Z,99294.82
2019-04-01T14:07:01.756Z,99299.84
2019-04-01T14:09:30.708Z,99298.61
2019-04-01T14:11:56.095Z,99299.85
2019-04-01T14:14:22.282Z,99296.90
2019-04-01T14:16:48.489Z,99284.38
2019-04-01T14:19:14.654Z,99293.50
2019-04-01T14:21:40.835Z,99295.23
2019-04-01T14:24:07.121Z,99293.59
2019-04-01T14:26:33.392Z,99288.31
2019-04-01T14:28:59.583Z,99292.92
2019-04-01T14:31:25.747Z,99303.27
2019-04-01T14:33:52.008Z,99290.88
2019-04-01T14:36:18.199Z,99293.97
2019-04-01T14:38:44.350Z,99289.64
2019-04-01T14:41:10.637Z,99299.40
2019-04-01T14:43:36.838Z,99296.42
2019-04-01T14:46:03.020Z,99305.34
2019-04-01T14:48:30.473Z,99297.47
2019-04-01T14:50:57.112Z,99302.06
2019-04-01T14:53:23.395Z,99294.28
2019-04-01T14:55:49.580Z,99295.94
2019-04-01T14:58:15.808Z,99288.81
2019-04-01T15:00:41.972Z,99288.14
2019-04-01T15:03:08.137Z,99294.05
2019-04-01T15:05:34.375Z,99293.66
2019-04-01T15:08:00.560Z,99293.58
2019-04-01T15:10:26.721Z,99299.14
2019-04-01T15:13:04.465Z,99296.48
2019-04-01T15:15:20.999Z,99299.59
2019-04-01T15:17:47.549Z,99294.88
2019-04-01T15:20:15.656Z,99287.55
2019-04-01T15:22:41.838Z,99287.98
2019-04-01T15:25:08.129Z,99290.97
2019-04-01T15:27:34.315Z,99287.36
2019-04-01T15:30:00.584Z,99285.42
2019-04-01T15:32:26.743Z,99287.63
2019-04-01T15:34:53.056Z,99282.61
2019-04-01T15:37:19.209Z,99284.75
2019-04-01T15:39:47.216Z,99282.73
2019-04-01T15:42:14.381Z,99286.80
2019-04-01T15:44:41.003Z,99286.88
2019-04-01T15:47:08.726Z,99290.69
2019-04-01T15:49:35.232Z,99292.50
2019-04-01T15:52:01.402Z,99290.99
2019-04-01T15:54:27.587Z,99288.93
2019-04-01T15:56:53.899Z,99292.95
2019-04-01T15:59:20.096Z,99290.20
2019-04-01T16:01:46.286Z,99292.11
2019-04-01T16:04:14.837Z,99295.47
2019-04-01T16:06:40.680Z,99297.66
2019-04-01T16:09:07.465Z,99299.61
2019-04-01T16:11:33.663Z,99298.22
2019-04-01T16:13:59.940Z,99296.06
2019-04-01T16:16:26.225Z,99306.38
2019-04-01T16:18:52.554Z,99310.00
2019-04-01T16:21:18.810Z,99309.49
2019-04-01T16:23:45.012Z,99309.44
2019-04-01T16:26:11.190Z,99305.16
2019-04-01T16:28:37.352Z,99309.55
2019-04-01T16:31:03.549Z,99315.56
2019-04-01T16:33:30.439Z,99315.97
2019-04-01T16:35:56.976Z,99319.80
2019-04-01T16:38:23.197Z,99326.78
2019-04-01T16:40:52.321Z,99326.95
2019-04-01T16:43:17.628Z,99321.25
2019-04-01T16:45:43.836Z,99319.95
2019-04-01T16:48:10.073Z,99325.98
2019-04-01T16:50:36.321Z,99319.41
2019-04-01T16:53:03.419Z,99321.91
2019-04-01T16:55:29.616Z,99316.27
2019-04-01T16:57:55.868Z,99324.34
2019-04-01T17:00:22.576Z,99329.84
2019-04-01T17:02:50.029Z,99333.95
2019-04-01T17:05:20.157Z,99337.36
2019-04-01T17:07:46.319Z,99337.34
2019-04-01T17:10:21.222Z,99342.55
2019-04-01T17:12:47.369Z,99345.37
2019-04-01T17:15:13.665Z,99351.98
2019-04-01T17:17:39.884Z,99349.80
2019-04-01T17:20:06.250Z,99350.19
2019-04-01T17:22:32.480Z,99352.72
2019-04-01T17:24:58.827Z,99359.06
2019-04-01T17:27:25.007Z,99358.31
2019-04-01T17:29:51.153Z,99364.28
2019-04-01T17:32:17.393Z,99374.39
2019-04-01T17:34:44.832Z,99376.25
2019-04-01T17:37:11.207Z,99376.08
2019-04-01T17:39:37.540Z,99387.70
2019-04-01T17:42:04.189Z,99386.56
2019-04-01T17:44:30.485Z,99388.64
2019-04-01T17:46:56.704Z,99394.21
2019-04-01T17:49:22.957Z,99398.37
2019-04-01T17:51:49.148Z,99401.19
2019-04-01T17:54:15.336Z,99403.11
2019-04-01T17:56:41.555Z,99405.61
2019-04-01T17:59:07.749Z,99404.84
2019-04-01T18:01:34.070Z,99408.98
2019-04-01T18:04:00.223Z,99412.81
2019-04-01T18:06:26.399Z,99418.53
2019-04-01T18:08:52.733Z,99422.42
2019-04-01T18:11:18.888Z,99431.80
2019-04-01T18:13:45.082Z,99428.77
2019-04-01T18:16:11.420Z,99435.90
2019-04-01T18:18:38.974Z,99438.94
2019-04-01T18:21:05.495Z,99438.64
2019-04-01T18:23:31.730Z,99447.19
2019-04-01T18:25:58.061Z,99441.62
2019-04-01T18:28:24.219Z,99454.25
2019-04-01T18:30:50.449Z,99452.47
2019-04-01T18:33:19.627Z,99453.84
2019-04-01T18:35:45.058Z,99456.29
2019-04-01T18:38:11.498Z,99462.08
2019-04-01T18:40:37.679Z,99466.77
2019-04-01T18:43:03.837Z,99467.88
2019-04-01T18:45:30.035Z,99472.20
2019-04-01T18:47:56.223Z,99471.95
2019-04-01T18:50:22.476Z,99473.88
2019-04-01T18:52:48.812Z,99470.33
2019-04-01T18:55:15.001Z,99481.88
2019-04-01T18:57:41.159Z,99482.43
2019-04-01T19:00:09.004Z,99484.09
2019-04-01T19:02:35.155Z,99485.50
2019-04-01T19:05:01.407Z,99484.95
2019-04-01T19:07:27.642Z,99492.12
2019-04-01T19:10:05.559Z,99493.79
2019-04-01T19:12:21.993Z,99500.02
2019-04-01T19:14:48.219Z,99504.45
2019-04-01T19:17:14.945Z,99508.58
2019-04-01T19:19:42.418Z,99515.18
2019-04-01T19:22:09.210Z,99518.78
2019-04-01T19:24:35.399Z,99515.77
2019-04-01T19:27:01.553Z,99514.92
2019-04-01T19:29:27.889Z,99524.00
2019-04-01T19:31:54.033Z,99519.76
2019-04-01T19:34:20.188Z,99518.69
2019-04-01T19:36:46.431Z,99514.34
2019-04-01T19:39:12.621Z,99520.70
2019-04-01T19:41:38.772Z,99511.02
2019-04-01T19:44:04.974Z,99509.91
2019-04-01T19:46:31.165Z,99514.34
2019-04-01T19:48:57.420Z,99513.02
2019-04-01T19:51:23.752Z,99513.56
2019-04-01T19:53:49.940Z,99513.30
2019-04-01T19:56:16.089Z,99521.27
2019-04-01T19:58:42.276Z,99525.65
2019-04-01T20:01:08.568Z,99524.83
2019-04-01T20:03:34.758Z,99527.86
2019-04-01T20:06:00.957Z,99536.66
2019-04-01T20:08:27.148Z,99538.03
2019-04-01T20:10:53.302Z,99543.79
2019-04-01T20:13:19.503Z,99544.61
2019-04-01T20:15:45.798Z,99544.28
2019-04-01T20:18:12.054Z,99552.48
2019-04-01T20:20:41.280Z,99548.41
2019-04-01T20:23:06.403Z,99546.39
2019-04-01T20:25:32.660Z,99554.39
2019-04-01T20:27:58.994Z,99557.70
2019-04-01T20:30:26.050Z,99557.39
2019-04-01T20:32:52.212Z,99556.63
2019-04-01T20:35:23.580Z,99563.93
2019-04-01T20:37:46.648Z,99582.31
2019-04-01T20:40:13.499Z,99582.63
2019-04-01T20:42:39.690Z,99595.27
2019-04-01T20:45:06.683Z,99597.70
2019-04-01T20:47:32.833Z,99606.23
2019-04-01T20:49:59.188Z,99609.86
2019-04-01T20:52:25.442Z,99621.84
2019-04-01T20:54:51.600Z,99629.61
2019-04-01T20:57:17.892Z,99630.41
2019-04-01T20:59:44.080Z,99630.17
2019-04-01T21:02:10.271Z,99640.55
2019-04-01T21:04:36.455Z,99632.63
2019-04-01T21:07:02.647Z,99634.60
2019-04-01T21:09:28.801Z,99647.54
2019-04-01T21:11:54.998Z,99643.55
2019-04-01T21:14:22.566Z,99649.13
2019-04-01T21:16:49.178Z,99650.52
2019-04-01T21:19:16.312Z,99653.89
2019-04-01T21:21:42.732Z,99654.19
2019-04-01T21:24:08.924Z,99667.56
2019-04-01T21:26:35.225Z,99664.70
2019-04-01T21:29:01.413Z,99671.94
2019-04-01T21:31:27.598Z,99674.98
2019-04-01T21:33:53.794Z,99677.81
2019-04-01T21:36:19.979Z,99683.70
2019-04-01T21:38:46.234Z,99681.34
2019-04-01T21:41:12.426Z,99677.46
2019-04-01T21:43:38.675Z,99690.38
2019-04-01T21:46:04.831Z,99690.10
2019-04-01T21:48:31.073Z,99699.02
2019-04-01T21:50:57.260Z,99699.91
2019-04-01T21:53:23.526Z,99701.22
2019-04-01T21:55:49.720Z,99705.38
2019-04-01T21:58:15.918Z,99705.36
2019-04-01T22:00:52.777Z,99711.55
2019-04-01T22:03:19.125Z,99717.15
2019-04-01T22:05:45.325Z,99719.12
2019-04-01T22:08:11.508Z,99726.05
2019-04-01T22:10:37.762Z,99738.66
2019-04-01T22:13:03.952Z,99740.22
2019-04-01T22:15:30.265Z,99745.06
2019-04-01T22:17:56.409Z,99752.34
2019-04-01T22:20:22.669Z,99755.00
2019-04-01T22:22:48.909Z,99753.05
2019-04-01T22:25:15.095Z,99751.11
2019-04-01T22:27:41.388Z,99756.41
2019-04-01T22:30:08.505Z,99757.45
2019-04-01T22:32:34.653Z,99758.20
2019-04-01T22:35:00.806Z,99762.63
2019-04-01T22:37:27.887Z,99755.37
2019-04-01T22:39:54.212Z,99753.08
2019-04-01T22:42:20.364Z,99762.06
2019-04-01T22:44:46.586Z,99754.74
2019-04-01T22:47:12.730Z,99763.99
2019-04-01T22:49:38.882Z,99761.91
2019-04-01T22:52:05.425Z,99779.94
2019-04-01T22:54:32.567Z,99777.95
2019-04-01T22:56:58.752Z,99789.42
2019-04-01T22:59:24.956Z,99788.73
2019-04-01T23:01:51.114Z,99782.72
2019-04-01T23:04:17.401Z,99780.93
2019-04-01T23:06:43.591Z,99790.88
2019-04-01T23:09:09.754Z,99788.37
2019-04-01T23:11:36.051Z,99797.28
2019-04-01T23:14:02.477Z,99802.23
2019-04-01T23:16:28.632Z,99799.72
2019-04-01T23:18:54.779Z,99803.73
2019-04-01T23:21:21.118Z,99802.73
2019-04-01T23:23:47.262Z,99813.28
2019-04-01T23:26:13.557Z,99811.63
2019-04-01T23:28:39.784Z,99818.23
2019-04-01T23:31:06.031Z,99819.84
2019-04-01T23:33:32.213Z,99816.84
2019-04-01T23:35:58.435Z,99818.94
2019-04-01T23:38:24.635Z,99823.16
2019-04-01T23:40:50.778Z,99821.05
2019-04-01T23:43:17.024Z,99828.77
2019-04-01T23:45:43.286Z,99830.97
2019-04-01T23:48:09.539Z,99831.88
2019-04-01T23:50:35.777Z,99828.77
2019-04-01T23:53:02.260Z,99835.23
2019-04-01T23:55:29.264Z,99835.53
2019-04-01T23:57:56.027Z,99844.95
